Time;durP1;ratioP1;P1;durP2;ratioP2;P2;SDS_P1;SDS_P2;PMS_P1;PMS_P2;Temp;Humidity;BMP_temperature;BMP_pressure;BME280_temperature;BME280_humidity;BME280_pressure;Samples;Min_cycle;Max_cycle;Signal;HPM_P1;HPM_P2
2022/05/31 00:02:21;;;;;;;1.67;1.00;;;;;;;22.24;54.04;101014.16;5066549;28;20792;-59
2022/05/31 00:04:49;;;;;;;1.35;1.00;;;;;;;22.30;53.55;101010.50;5064263;28;20413;-59
2022/05/31 00:07:17;;;;;;;1.52;1.00;;;;;;;22.28;53.59;101009.94;5069710;28;20425;-56
2022/05/31 00:09:44;;;;;;;1.77;1.13;;;;;;;22.27;53.80;101012.88;5071336;28;21292;-58
2022/05/31 00:12:12;;;;;;;2.10;1.20;;;;;;;22.28;53.75;101009.94;5068079;28;20797;-58
2022/05/31 00:14:40;;;;;;;3.03;1.20;;;;;;;22.20;54.12;101006.75;5071486;28;20411;-58
2022/05/31 00:17:07;;;;;;;3.05;1.10;;;;;;;22.16;54.29;101011.81;5071334;28;20418;-59
2022/05/31 00:19:34;;;;;;;1.77;1.00;;;;;;;22.10;54.52;101019.00;5065091;28;20918;-58
2022/05/31 00:22:07;;;;;;;2.92;1.10;;;;;;;22.08;54.42;101013.03;5061116;28;20422;-58
2022/05/31 00:24:34;;;;;;;3.63;1.20;;;;;;;22.03;54.57;101010.22;5066548;28;20410;-59
2022/05/31 00:27:02;;;;;;;1.50;1.00;;;;;;;21.99;54.62;101013.66;5068168;28;20450;-58
2022/05/31 00:29:29;;;;;;;4.60;1.27;;;;;;;21.82;54.97;101014.38;5063330;28;20470;-58
2022/05/31 00:31:57;;;;;;;3.65;1.20;;;;;;;21.72;55.50;101019.56;5070845;28;20415;-59
2022/05/31 00:34:23;;;;;;;1.85;1.10;;;;;;;21.85;55.28;101023.88;5070662;28;20415;-59
2022/05/31 00:36:51;;;;;;;2.10;1.27;;;;;;;21.79;55.54;101019.41;5071160;28;20441;-58
2022/05/31 00:39:20;;;;;;;1.70;1.10;;;;;;;21.87;55.05;101014.47;5070950;28;20425;-58
2022/05/31 00:41:59;;;;;;;4.00;1.30;;;;;;;21.58;55.61;101018.97;5061925;28;20497;-58
2022/05/31 00:44:27;;;;;;;2.13;1.13;;;;;;;21.57;55.71;101025.41;5070869;28;20411;-59
2022/05/31 00:46:58;;;;;;;4.85;1.20;;;;;;;21.41;55.80;101016.16;5069700;28;20422;-59
2022/05/31 00:49:32;;;;;;;2.13;1.10;;;;;;;21.42;55.77;101015.06;5069250;28;20835;-58
2022/05/31 00:52:03;;;;;;;1.97;1.00;;;;;;;21.65;55.54;101016.97;5057366;28;20468;-58
2022/05/31 00:54:36;;;;;;;2.97;1.10;;;;;;;21.63;55.37;101007.50;5070942;28;20410;-58
2022/05/31 00:57:04;;;;;;;3.35;1.30;;;;;;;21.68;55.19;101007.56;5063739;28;20801;-58
2022/05/31 00:59:38;;;;;;;4.07;1.60;;;;;;;21.69;55.09;100999.25;5062928;28;20443;-59
2022/05/31 01:02:06;;;;;;;3.22;1.20;;;;;;;21.57;55.47;101006.53;5065615;28;20948;-58
2022/05/31 01:04:39;;;;;;;1.50;1.10;;;;;;;21.49;55.69;101006.91;5062280;28;20464;-58
2022/05/31 01:07:06;;;;;;;2.63;1.30;;;;;;;21.48;55.74;101010.66;5066540;28;20420;-58
2022/05/31 01:09:35;;;;;;;3.33;1.30;;;;;;;21.46;55.78;101008.19;5069926;28;20526;-58
2022/05/31 01:12:05;;;;;;;3.35;1.83;;;;;;;21.32;56.03;101012.97;5061705;28;20421;-59
2022/05/31 01:14:32;;;;;;;2.65;1.30;;;;;;;21.32;56.00;101015.69;5062242;28;20423;-58
2022/05/31 01:17:07;;;;;;;3.33;1.30;;;;;;;21.37;55.87;101012.25;5066727;28;20426;-58
2022/05/31 01:22:20;;;;;;;2.60;1.33;;;;;;;21.41;55.78;101016.16;5061287;28;20469;-58
2022/05/31 01:24:52;;;;;;;2.97;1.33;;;;;;;21.39;55.99;101010.16;5062859;28;20446;-58
2022/05/31 01:27:33;;;;;;;1.90;1.42;;;;;;;21.36;56.08;101016.84;5067443;28;20785;-58
2022/05/31 01:30:03;;;;;;;3.87;1.30;;;;;;;21.34;56.13;101024.34;5068353;28;20433;-58
2022/05/31 01:32:30;;;;;;;3.60;1.40;;;;;;;21.19;56.59;101022.13;5061131;28;20415;-58
2022/05/31 01:35:02;;;;;;;2.30;1.40;;;;;;;21.13;56.83;101025.72;5058694;28;20421;-58
2022/05/31 01:37:45;;;;;;;2.58;1.27;;;;;;;21.04;57.14;101024.44;5054725;28;20416;-58
2022/05/31 01:40:17;;;;;;;2.40;1.40;;;;;;;21.15;56.81;101038.97;5053534;28;20420;-58
2022/05/31 01:42:47;;;;;;;3.00;1.50;;;;;;;21.20;56.79;101045.31;5062322;28;20426;-59
2022/05/31 01:45:20;;;;;;;2.78;1.40;;;;;;;21.27;56.54;101044.41;5058388;28;20949;-58
2022/05/31 01:47:47;;;;;;;2.28;1.63;;;;;;;21.29;56.36;101036.91;5067682;28;20928;-58
2022/05/31 01:50:17;;;;;;;2.60;1.40;;;;;;;21.19;56.58;101045.53;5069625;28;20434;-59
2022/05/31 01:52:48;;;;;;;3.28;2.00;;;;;;;21.12;56.95;101042.13;5066599;28;20428;-58
2022/05/31 01:55:15;;;;;;;4.03;2.60;;;;;;;21.21;56.66;101048.81;5065955;28;20421;-58
2022/05/31 01:57:47;;;;;;;4.15;2.22;;;;;;;21.19;56.58;101040.16;5068924;28;20425;-58
2022/05/31 02:00:17;;;;;;;7.13;3.38;;;;;;;21.12;56.79;101042.13;5069418;28;20430;-58
2022/05/31 02:02:47;;;;;;;2.90;1.80;;;;;;;21.13;56.77;101047.28;5069096;28;20429;-58
2022/05/31 02:05:15;;;;;;;3.60;2.70;;;;;;;20.84;57.50;101048.19;5069254;28;20418;-57
2022/05/31 02:07:42;;;;;;;6.15;2.53;;;;;;;20.83;57.83;101038.44;5068927;28;20781;-58
2022/05/31 02:10:11;;;;;;;3.63;2.30;;;;;;;20.87;57.66;101043.16;5055397;28;20426;-58
2022/05/31 02:12:38;;;;;;;4.13;3.03;;;;;;;20.81;58.08;101054.84;5069168;28;20421;-58
2022/05/31 02:15:06;;;;;;;4.28;3.15;;;;;;;20.72;58.10;101054.34;5069040;28;20924;-58
2022/05/31 02:17:33;;;;;;;3.83;2.08;;;;;;;20.61;58.50;101053.25;5060494;28;20821;-58
2022/05/31 02:20:00;;;;;;;5.18;2.13;;;;;;;20.72;58.21;101058.91;5058657;28;20414;-58
2022/05/31 02:22:30;;;;;;;6.17;2.37;;;;;;;20.63;58.53;101055.72;5069086;28;20425;-58
2022/05/31 02:24:57;;;;;;;2.50;2.00;;;;;;;20.59;58.77;101057.19;5068942;28;20423;-58
2022/05/31 02:27:26;;;;;;;4.22;2.33;;;;;;;20.68;58.49;101058.53;5068750;28;20813;-58
2022/05/31 02:29:52;;;;;;;2.63;1.90;;;;;;;20.82;57.94;101067.28;5059925;28;20932;-58
2022/05/31 02:32:19;;;;;;;6.40;2.28;;;;;;;20.80;58.18;101072.06;5051773;28;20435;-58
2022/05/31 02:34:48;;;;;;;3.92;2.08;;;;;;;20.80;58.17;101067.50;5061085;28;20418;-58
2022/05/31 02:37:16;;;;;;;4.90;2.03;;;;;;;20.85;58.17;101064.13;5066749;28;20419;-58
2022/05/31 02:39:43;;;;;;;3.83;1.83;;;;;;;20.96;57.77;101071.41;5066797;28;20410;-58
2022/05/31 02:42:10;;;;;;;2.75;1.80;;;;;;;20.98;57.46;101081.97;5058861;28;20427;-58
2022/05/31 02:44:39;;;;;;;3.42;1.80;;;;;;;21.02;57.66;101087.72;5060635;28;20435;-58
2022/05/31 02:47:08;;;;;;;3.13;1.90;;;;;;;20.88;57.80;101095.16;5062937;28;20418;-58
2022/05/31 02:49:36;;;;;;;3.45;1.85;;;;;;;20.85;57.89;101096.47;5067224;28;20435;-58
2022/05/31 02:52:03;;;;;;;4.32;1.70;;;;;;;21.02;57.36;101106.59;5061524;28;20427;-59
2022/05/31 02:54:30;;;;;;;3.97;1.98;;;;;;;21.02;57.31;101106.59;5058450;28;20485;-58
2022/05/31 02:56:57;;;;;;;4.50;2.00;;;;;;;20.91;57.71;101108.19;5068949;28;20425;-58
2022/05/31 02:59:24;;;;;;;3.15;1.90;;;;;;;20.71;58.09;101108.47;5067249;28;20418;-58
2022/05/31 03:01:52;;;;;;;3.85;2.00;;;;;;;20.59;58.49;101119.16;5068539;28;20762;-58
2022/05/31 03:04:20;;;;;;;2.58;1.90;;;;;;;20.70;58.15;101118.41;5065914;28;20853;-58
2022/05/31 03:06:47;;;;;;;4.30;2.20;;;;;;;20.89;57.73;101121.09;5060898;28;20419;-59
2022/05/31 03:09:15;;;;;;;12.80;3.20;;;;;;;20.90;57.79;101126.22;5069595;28;20968;-58
2022/05/31 03:11:47;;;;;;;3.90;2.13;;;;;;;21.15;57.00;101115.28;5067515;28;20414;-58
2022/05/31 03:14:18;;;;;;;4.20;1.90;;;;;;;21.15;57.00;101125.25;5072499;28;20426;-58
2022/05/31 03:16:49;;;;;;;5.55;1.98;;;;;;;21.13;57.00;101124.66;5057647;28;20416;-58
2022/05/31 03:19:24;;;;;;;4.00;2.03;;;;;;;21.18;57.11;101131.00;5068212;28;20424;-58
2022/05/31 03:21:56;;;;;;;4.75;2.22;;;;;;;21.13;57.04;101130.06;5056424;28;20912;-58
2022/05/31 03:24:30;;;;;;;4.70;2.10;;;;;;;21.23;56.84;101129.47;5072094;28;20796;-58
2022/05/31 03:27:01;;;;;;;4.67;1.83;;;;;;;21.49;56.11;101134.50;5065426;28;20524;-58
2022/05/31 03:29:28;;;;;;;2.90;2.00;;;;;;;21.69;55.68;101152.22;5071778;28;20430;-58
2022/05/31 03:31:56;;;;;;;4.68;2.05;;;;;;;21.66;55.50;101141.91;5072216;28;20880;-58
2022/05/31 03:34:24;;;;;;;5.07;2.13;;;;;;;21.85;55.11;101148.03;5068881;28;20414;-59
2022/05/31 03:36:51;;;;;;;4.78;2.15;;;;;;;21.79;55.25;101148.94;5067865;28;20423;-58
2022/05/31 03:39:18;;;;;;;5.82;2.40;;;;;;;22.05;54.53;101136.88;5057290;28;20417;-58
2022/05/31 03:41:46;;;;;;;6.63;2.25;;;;;;;21.97;54.90;101138.06;5070666;28;20421;-59
2022/05/31 03:44:13;;;;;;;2.77;2.10;;;;;;;22.12;54.76;101151.88;5066461;28;20937;-58
2022/05/31 03:46:40;;;;;;;4.85;2.20;;;;;;;22.21;54.43;101148.81;5063483;28;20414;-59
2022/05/31 03:49:08;;;;;;;5.13;2.10;;;;;;;22.24;54.32;101151.88;5082570;28;20418;-58
2022/05/31 03:51:37;;;;;;;4.90;2.22;;;;;;;22.29;54.14;101148.47;5072297;28;20407;-58
2022/05/31 03:54:04;;;;;;;3.65;2.13;;;;;;;22.53;53.56;101150.06;5060853;28;20930;-58
2022/05/31 03:56:31;;;;;;;4.70;2.00;;;;;;;22.57;53.34;101152.31;5071439;28;20419;-59
2022/05/31 03:58:58;;;;;;;7.10;2.25;;;;;;;22.56;53.23;101158.75;5070125;28;20934;-59
2022/05/31 04:01:25;;;;;;;4.47;2.30;;;;;;;22.55;53.33;101157.94;5073523;28;20415;-59
2022/05/31 04:03:52;;;;;;;5.70;2.28;;;;;;;22.64;53.20;101151.09;5072839;28;20407;-59
2022/05/31 04:06:19;;;;;;;7.95;2.35;;;;;;;22.56;53.42;101154.16;5066407;28;20417;-59
2022/05/31 04:08:48;;;;;;;8.13;2.17;;;;;;;22.44;53.66;101162.31;5062525;28;20403;-59
2022/05/31 04:11:16;;;;;;;7.00;2.78;;;;;;;22.48;53.40;101158.06;5070965;28;20411;-59
2022/05/31 04:13:43;;;;;;;6.03;2.80;;;;;;;22.70;53.25;101158.22;5071375;28;20497;-59
2022/05/31 04:16:15;;;;;;;6.13;2.50;;;;;;;22.83;52.71;101159.03;5066073;28;20411;-59
2022/05/31 04:18:43;;;;;;;9.90;2.47;;;;;;;23.08;52.35;101147.91;5070634;28;20417;-59
2022/05/31 04:21:12;;;;;;;7.13;2.38;;;;;;;23.13;52.36;101158.00;5070468;28;20762;-59
2022/05/31 04:26:25;;;;;;;6.97;2.40;;;;;;;23.66;50.97;101151.31;5055234;28;20407;-59
2022/05/31 04:28:52;;;;;;;6.10;2.40;;;;;;;23.93;50.33;101154.19;5062842;28;20415;-59
2022/05/31 04:31:19;;;;;;;6.90;2.40;;;;;;;24.18;49.70;101155.59;5070415;28;20792;-59
2022/05/31 04:33:46;;;;;;;7.53;2.60;;;;;;;24.51;48.97;101162.00;5069721;28;20441;-60
2022/05/31 04:36:19;;;;;;;5.65;2.70;;;;;;;24.92;47.85;101162.47;5070720;28;20430;-60
2022/05/31 04:38:46;;;;;;;6.13;2.72;;;;;;;25.23;47.05;101162.78;5064995;28;20786;-60
2022/05/31 04:41:17;;;;;;;7.28;2.40;;;;;;;25.68;46.10;101164.31;5067788;28;20425;-60
2022/05/31 04:43:46;;;;;;;5.32;2.50;;;;;;;26.09;45.19;101164.56;5065796;28;20410;-60
2022/05/31 04:46:14;;;;;;;7.28;2.40;;;;;;;26.41;44.09;101163.66;5064011;28;20497;-61
2022/05/31 04:48:41;;;;;;;8.65;2.50;;;;;;;26.61;43.55;101161.03;5063952;28;20942;-60
2022/05/31 04:51:08;;;;;;;4.50;2.10;;;;;;;26.77;43.00;101169.25;5064986;28;20510;-60
2022/05/31 04:53:35;;;;;;;5.13;2.10;;;;;;;26.82;43.21;101159.22;5063971;28;20422;-60
2022/05/31 04:56:04;;;;;;;3.00;2.00;;;;;;;27.02;42.80;101160.34;5062456;28;20865;-60
2022/05/31 04:58:31;;;;;;;5.70;1.90;;;;;;;27.20;42.73;101156.28;5068199;28;20407;-60
2022/05/31 05:01:01;;;;;;;3.55;1.90;;;;;;;27.55;41.48;101149.22;5068162;28;20426;-60
2022/05/31 05:03:29;;;;;;;3.88;1.92;;;;;;;27.79;41.13;101149.50;5070114;28;20487;-60
2022/05/31 05:06:00;;;;;;;5.38;1.90;;;;;;;27.92;41.20;101157.09;5062239;28;20426;-60
2022/05/31 05:08:27;;;;;;;4.68;1.83;;;;;;;28.11;40.58;101160.06;5064059;28;20403;-60
2022/05/31 05:10:53;;;;;;;5.80;1.88;;;;;;;28.28;40.05;101153.47;5061033;28;21820;-60
2022/05/31 05:13:20;;;;;;;4.65;2.45;;;;;;;28.32;40.12;101151.81;5067829;28;20415;-60
2022/05/31 05:15:48;;;;;;;4.78;2.10;;;;;;;28.32;40.37;101151.81;5069367;28;20796;-60
2022/05/31 05:18:16;;;;;;;6.15;2.30;;;;;;;28.74;39.19;101151.38;5069021;28;20501;-60
2022/05/31 05:20:43;;;;;;;4.57;2.05;;;;;;;29.45;37.92;101154.69;5070004;28;20421;-60
2022/05/31 05:23:10;;;;;;;3.90;2.10;;;;;;;29.72;37.51;101156.91;5069865;28;20419;-60
2022/05/31 05:25:37;;;;;;;5.20;2.08;;;;;;;30.08;36.77;101147.56;5069410;28;20407;-60
2022/05/31 05:30:38;;;;;;;4.20;1.95;;;;;;;30.30;36.75;101147.81;5069184;28;20758;-60
2022/05/31 05:30:51;;;;;;;6.90;2.40;;;;;;;30.73;35.96;101147.00;5067650;28;20476;-60
2022/05/31 05:33:20;;;;;;;4.32;2.50;;;;;;;30.92;35.56;101147.06;5066949;28;20460;-60
2022/05/31 05:35:46;;;;;;;5.47;2.60;;;;;;;31.27;34.84;101147.59;5069611;28;20474;-60
2022/05/31 05:38:14;;;;;;;4.78;2.20;;;;;;;31.63;34.33;101149.75;5069064;28;20414;-60
2022/05/31 05:40:41;;;;;;;4.60;2.50;;;;;;;31.97;34.31;101143.09;5069067;28;20425;-60
2022/05/31 05:43:10;;;;;;;5.80;2.28;;;;;;;32.29;33.65;101136.69;5069139;28;20785;-60
2022/05/31 05:45:37;;;;;;;5.40;2.70;;;;;;;32.55;33.27;101136.94;5066325;28;20415;-61
2022/05/31 05:48:05;;;;;;;5.68;2.78;;;;;;;32.86;32.49;101138.22;5069420;28;20415;-60
2022/05/31 05:50:37;;;;;;;3.65;3.00;;;;;;;33.44;32.03;101140.09;5069559;28;20427;-60
2022/05/31 05:53:07;;;;;;;7.63;3.00;;;;;;;33.65;31.21;101142.28;5063010;28;20409;-60
2022/05/31 05:55:36;;;;;;;11.25;5.25;;;;;;;33.87;31.18;101146.94;5062848;28;20442;-60
2022/05/31 05:58:03;;;;;;;5.93;3.33;;;;;;;34.30;30.24;101140.78;5062879;28;20476;-60
2022/05/31 06:00:31;;;;;;;5.70;3.10;;;;;;;34.58;29.69;101135.81;5057067;28;20417;-60
2022/05/31 06:03:06;;;;;;;9.25;2.90;;;;;;;34.76;29.42;101138.63;5064217;28;20497;-61
2022/05/31 06:05:36;;;;;;;4.45;2.70;;;;;;;34.95;29.13;101136.34;5063803;28;20416;-60
2022/05/31 06:08:06;;;;;;;5.32;3.10;;;;;;;34.92;29.43;101137.00;5068751;28;20472;-61
2022/05/31 06:10:38;;;;;;;3.35;3.00;;;;;;;35.14;29.11;101137.94;5069694;28;20433;-60
2022/05/31 06:13:11;;;;;;;4.32;3.10;;;;;;;35.35;29.04;101138.91;5050119;28;20803;-60
2022/05/31 06:15:43;;;;;;;7.57;3.30;;;;;;;35.63;28.04;101129.41;5061820;28;20433;-60
2022/05/31 06:18:14;;;;;;;4.97;3.40;;;;;;;35.87;28.32;101126.06;5050676;28;20419;-60
2022/05/31 06:20:46;;;;;;;7.35;3.45;;;;;;;35.99;28.15;101123.41;5061209;28;20410;-60
2022/05/31 06:23:14;;;;;;;7.00;3.67;;;;;;;36.08;28.05;101128.88;5055016;28;20417;-61
2022/05/31 06:25:41;;;;;;;6.32;3.60;;;;;;;36.46;27.16;101119.72;5069249;28;20414;-60
2022/05/31 06:28:09;;;;;;;5.77;3.90;;;;;;;36.58;26.74;101116.25;5055377;28;20415;-61
2022/05/31 06:30:36;;;;;;;4.53;3.40;;;;;;;36.99;26.57;101109.88;5069501;28;20433;-61
2022/05/31 06:33:03;;;;;;;7.32;4.15;;;;;;;37.04;26.55;101114.38;5054900;28;20413;-60
2022/05/31 06:35:30;;;;;;;8.00;3.92;;;;;;;36.89;26.34;101111.09;5061894;28;20413;-62
2022/05/31 06:37:59;;;;;;;4.97;3.80;;;;;;;36.88;26.36;101111.44;5062728;28;20415;-61
2022/05/31 06:40:25;;;;;;;6.38;3.78;;;;;;;36.95;26.08;101106.16;5067371;28;20411;-63
2022/05/31 06:42:52;;;;;;;6.35;4.20;;;;;;;37.04;26.60;101104.13;5068433;28;20480;-61
2022/05/31 06:45:19;;;;;;;7.23;4.33;;;;;;;36.82;26.74;101105.31;5066716;28;20407;-60
2022/05/31 06:47:46;;;;;;;5.88;4.18;;;;;;;36.58;27.29;101107.94;5068613;28;20424;-61
2022/05/31 06:50:13;;;;;;;7.03;4.57;;;;;;;36.82;26.97;101105.31;5068937;28;20441;-61
2022/05/31 06:58:10;;;;;;;7.32;4.25;;;;;;;36.67;26.95;101105.91;5056678;28;20410;-61
2022/05/31 07:00:37;;;;;;;6.95;4.40;;;;;;;36.16;27.53;101108.72;5055365;28;20426;-61
2022/05/31 07:03:04;;;;;;;5.78;4.22;;;;;;;35.37;28.61;101117.31;5066348;28;20413;-61
2022/05/31 07:05:31;;;;;;;7.00;4.63;;;;;;;34.86;29.13;101110.72;5068704;28;20931;-61
2022/05/31 07:07:58;;;;;;;8.18;5.00;;;;;;;34.68;29.43;101109.91;5054524;28;20987;-61
2022/05/31 07:10:26;;;;;;;6.17;3.90;;;;;;;34.38;29.90;101107.00;5059292;28;20931;-61
2022/05/31 07:12:53;;;;;;;9.55;4.75;;;;;;;33.79;31.09;101117.50;5064350;28;20413;-61
2022/05/31 07:15:20;;;;;;;6.85;5.22;;;;;;;33.38;31.95;101115.81;5060093;28;20416;-61
2022/05/31 07:17:47;;;;;;;17.42;7.68;;;;;;;33.33;32.12;101111.25;5062818;28;20418;-60
2022/05/31 07:20:15;;;;;;;14.98;7.25;;;;;;;33.20;31.67;101109.41;5068232;28;20415;-61
2022/05/31 07:22:42;;;;;;;11.40;5.63;;;;;;;33.08;32.56;101104.44;5064924;28;20458;-61
2022/05/31 07:25:10;;;;;;;7.82;4.93;;;;;;;33.07;32.14;101106.38;5058417;28;20417;-61
2022/05/31 07:27:39;;;;;;;8.20;5.30;;;;;;;32.69;33.20;101105.94;5064039;28;20411;-61
2022/05/31 07:30:07;;;;;;;5.82;5.13;;;;;;;32.80;33.14;101106.50;5058396;28;20411;-61
2022/05/31 07:32:34;;;;;;;7.77;5.33;;;;;;;32.71;32.60;101114.69;5064442;28;20417;-61
2022/05/31 07:35:01;;;;;;;11.07;5.75;;;;;;;32.65;32.92;101111.25;5058898;28;20411;-61
2022/05/31 07:37:28;;;;;;;7.35;5.28;;;;;;;32.64;33.46;101115.09;5064914;28;20421;-61
2022/05/31 07:39:55;;;;;;;7.97;5.38;;;;;;;32.49;33.37;101115.44;5067177;28;20419;-61
2022/05/31 07:42:22;;;;;;;8.47;5.10;;;;;;;32.43;33.04;101108.41;5056175;28;20407;-62
2022/05/31 07:44:53;;;;;;;7.72;5.07;;;;;;;32.49;33.51;101112.69;5050533;28;20423;-62
2022/05/31 07:47:20;;;;;;;7.45;5.00;;;;;;;32.31;33.31;101114.44;5065039;28;20776;-62
2022/05/31 07:49:47;;;;;;;8.05;5.00;;;;;;;32.41;33.57;101105.97;5068909;28;20437;-62
2022/05/31 07:52:14;;;;;;;8.05;5.47;;;;;;;32.41;33.29;101102.41;5068329;28;20437;-62
2022/05/31 07:54:41;;;;;;;7.60;5.27;;;;;;;32.50;32.77;101115.13;5062652;28;20404;-62
2022/05/31 07:58:30;;;;;;;10.10;5.57;;;;;;;32.54;32.84;101110.63;5052329;28;20409;-62
2022/05/31 07:59:57;;;;;;;8.98;5.22;;;;;;;32.61;32.25;101112.16;5060135;28;20411;-62
2022/05/31 08:02:23;;;;;;;9.27;4.70;;;;;;;32.54;32.02;101109.81;5071662;28;20414;-61
2022/05/31 08:04:50;;;;;;;9.77;4.97;;;;;;;32.57;32.08;101118.25;5065563;28;20412;-61
2022/05/31 08:07:18;;;;;;;8.45;4.57;;;;;;;32.48;31.99;101111.03;5052056;28;20907;-62
2022/05/31 08:09:44;;;;;;;8.73;4.82;;;;;;;32.51;32.16;101105.75;5061583;28;20454;-62
2022/05/31 08:12:12;;;;;;;5.93;4.50;;;;;;;32.50;32.77;101112.38;5064931;28;20441;-62
2022/05/31 08:14:39;;;;;;;7.17;4.73;;;;;;;32.40;33.24;101109.84;5071075;28;20415;-62
2022/05/31 08:17:09;;;;;;;9.82;4.82;;;;;;;32.29;33.36;101103.78;5059976;28;20956;-62
2022/05/31 08:19:37;;;;;;;7.15;5.03;;;;;;;32.19;33.68;101110.28;5065941;28;20413;-61
2022/05/31 08:22:05;;;;;;;7.20;4.97;;;;;;;32.17;33.78;101109.78;5060430;28;20460;-62
2022/05/31 08:24:32;;;;;;;7.10;5.07;;;;;;;32.13;32.82;101117.00;5070896;28;20411;-62
2022/05/31 08:27:00;;;;;;;8.45;4.65;;;;;;;32.24;33.29;101114.06;5065445;28;20445;-62
2022/05/31 08:29:28;;;;;;;8.35;4.85;;;;;;;32.37;32.90;101113.19;5064717;28;20423;-62
2022/05/31 08:31:58;;;;;;;8.77;4.22;;;;;;;32.40;32.23;101112.59;5067076;28;20459;-62
2022/05/31 08:34:26;;;;;;;8.32;4.68;;;;;;;32.29;32.22;101112.00;5063724;28;20464;-62
2022/05/31 08:36:54;;;;;;;6.65;4.63;;;;;;;32.25;31.74;101113.75;5068372;28;20409;-62
2022/05/31 08:39:21;;;;;;;6.32;4.22;;;;;;;32.15;30.88;101116.69;5062345;28;20492;-61
2022/05/31 08:41:50;;;;;;;7.03;4.25;;;;;;;31.79;32.08;101111.91;5068060;28;20411;-62
2022/05/31 08:44:35;;;;;;;7.17;4.33;;;;;;;31.95;32.49;101109.66;5054964;28;20507;-62
2022/05/31 08:47:12;;;;;;;7.30;4.57;;;;;;;31.83;32.38;101104.69;5064974;28;20422;-61
2022/05/31 08:52:48;;;;;;;8.63;4.70;;;;;;;31.82;33.87;101103.06;5054299;28;20434;-62
2022/05/31 08:58:10;;;;;;;8.23;4.60;;;;;;;32.01;33.59;101109.25;5071019;28;20444;-62
2022/05/31 09:00:42;;;;;;;7.72;4.53;;;;;;;32.11;34.03;101108.28;5070851;28;20415;-62
2022/05/31 09:03:16;;;;;;;7.72;4.50;;;;;;;32.06;33.62;101113.84;5057830;28;20411;-62
2022/05/31 09:05:50;;;;;;;7.57;4.30;;;;;;;32.01;33.01;101111.19;5070695;28;20418;-62
2022/05/31 09:08:21;;;;;;;6.03;4.25;;;;;;;31.90;33.17;101110.56;5050707;28;20816;-62
2022/05/31 09:10:57;;;;;;;5.85;4.55;;;;;;;32.09;33.27;101109.69;5050941;28;20513;-62
2022/05/31 09:13:29;;;;;;;7.53;4.47;;;;;;;32.11;32.64;101118.44;5057701;28;20426;-62
2022/05/31 09:16:02;;;;;;;7.60;5.45;;;;;;;31.99;32.77;101121.66;5070836;28;20427;-60
2022/05/31 09:18:40;;;;;;;6.93;5.00;;;;;;;32.11;32.53;101112.94;5063535;28;20417;-62
2022/05/31 09:21:17;;;;;;;6.53;4.00;;;;;;;32.17;32.53;101114.47;5050982;28;20933;-61
2022/05/31 09:23:46;;;;;;;8.48;4.50;;;;;;;32.26;32.52;101109.06;5070326;28;20969;-61
2022/05/31 09:26:28;;;;;;;6.47;3.85;;;;;;;32.23;32.08;101109.66;5070472;28;20431;-61
2022/05/31 09:29:01;;;;;;;6.00;3.90;;;;;;;32.25;32.25;101104.69;5070611;28;20420;-61
2022/05/31 09:31:48;;;;;;;5.40;3.87;;;;;;;32.35;32.54;101108.03;5054129;28;20442;-61
2022/05/31 09:34:33;;;;;;;12.88;4.50;;;;;;;32.28;31.95;101110.38;5061006;28;20909;-62
2022/05/31 09:37:11;;;;;;;7.68;3.83;;;;;;;32.22;32.24;101110.81;5050514;28;20431;-62
2022/05/31 09:39:48;;;;;;;7.20;4.00;;;;;;;32.34;32.00;101116.56;5063427;28;20403;-62
2022/05/31 09:42:22;;;;;;;5.70;3.90;;;;;;;32.28;32.04;101101.34;5049124;28;20412;-62
2022/05/31 09:44:59;;;;;;;6.03;3.88;;;;;;;32.26;31.40;101098.91;5054183;28;20424;-61
2022/05/31 09:47:28;;;;;;;6.53;3.95;;;;;;;32.22;31.82;101091.59;5063965;28;20419;-61
2022/05/31 09:49:56;;;;;;;8.32;4.40;;;;;;;32.13;32.54;101089.56;5059878;28;20415;-62
2022/05/31 09:52:42;;;;;;;6.30;3.87;;;;;;;32.24;32.13;101090.16;5067517;28;20426;-61
2022/05/31 09:58:02;;;;;;;5.63;4.13;;;;;;;32.14;32.82;101096.69;5049924;28;20539;-62
2022/05/31 10:00:29;;;;;;;5.97;3.95;;;;;;;31.91;32.58;101089.44;5048047;28;20416;-62
2022/05/31 10:03:05;;;;;;;8.02;4.10;;;;;;;31.75;33.16;101087.03;5068002;28;20418;-61
2022/05/31 10:05:34;;;;;;;7.97;3.95;;;;;;;31.67;33.03;101089.66;5057029;28;20408;-62
2022/05/31 10:08:02;;;;;;;6.32;4.20;;;;;;;31.85;33.64;101086.00;5067717;28;21368;-61
2022/05/31 10:10:33;;;;;;;5.60;4.10;;;;;;;32.04;33.47;101093.34;5057799;28;20922;-62
2022/05/31 10:13:03;;;;;;;6.60;4.22;;;;;;;31.56;33.74;101084.34;5063229;28;20432;-61
2022/05/31 10:15:41;;;;;;;5.00;3.60;;;;;;;31.48;33.07;101076.03;5060173;28;20465;-61
2022/05/31 10:18:12;;;;;;;6.22;3.90;;;;;;;31.42;33.38;101067.06;5069378;28;20411;-61
2022/05/31 10:20:53;;;;;;;6.67;4.13;;;;;;;31.10;34.17;101074.22;5069357;28;20425;-62
2022/05/31 10:23:24;;;;;;;10.15;4.15;;;;;;;31.40;33.84;101074.78;5050186;28;20935;-61
2022/05/31 10:25:54;;;;;;;5.72;3.95;;;;;;;31.50;33.92;101063.66;5061308;28;20413;-61
2022/05/31 10:28:27;;;;;;;7.32;4.07;;;;;;;31.66;33.81;101064.19;5069115;28;20415;-61
2022/05/31 10:31:03;;;;;;;6.20;4.13;;;;;;;31.44;34.00;101062.13;5069575;28;20410;-62
2022/05/31 10:33:32;;;;;;;6.05;3.78;;;;;;;31.13;33.85;101068.13;5050668;28;20416;-61
2022/05/31 10:36:15;;;;;;;7.15;4.13;;;;;;;30.90;34.49;101066.28;5060344;28;20900;-62
2022/05/31 10:38:46;;;;;;;5.47;4.10;;;;;;;31.05;34.41;101060.59;5063990;28;20408;-61
2022/05/31 10:41:21;;;;;;;7.13;3.90;;;;;;;31.33;34.45;101052.44;5061315;28;20814;-61
2022/05/31 10:43:51;;;;;;;7.13;4.15;;;;;;;31.32;34.09;101048.09;5067604;28;20414;-61
2022/05/31 10:46:26;;;;;;;5.40;4.22;;;;;;;31.38;34.62;101046.88;5049291;28;20416;-62
2022/05/31 10:48:55;;;;;;;6.73;3.90;;;;;;;31.28;33.64;101041.56;5050334;28;20409;-61
2022/05/31 10:51:35;;;;;;;6.75;4.03;;;;;;;31.15;34.36;101052.22;5061212;28;20436;-61
2022/05/31 10:54:20;;;;;;;4.82;4.13;;;;;;;30.57;34.93;101041.63;5064433;28;20931;-61
2022/05/31 10:56:59;;;;;;;6.47;4.00;;;;;;;30.57;34.95;101038.91;5058969;28;20420;-61
2022/05/31 10:59:35;;;;;;;6.65;3.90;;;;;;;30.47;35.13;101031.66;5062811;28;20956;-61
2022/05/31 11:02:24;;;;;;;6.20;4.05;;;;;;;30.29;35.72;101025.06;5060463;28;20407;-61
2022/05/31 11:04:57;;;;;;;7.05;3.90;;;;;;;30.52;35.08;101023.38;5055616;28;20472;-61
2022/05/31 11:07:40;;;;;;;4.47;4.00;;;;;;;30.49;35.31;101015.78;5055117;28;20409;-61
2022/05/31 11:13:26;;;;;;;5.00;4.03;;;;;;;30.41;35.36;101010.97;5068670;28;20480;-61
2022/05/31 11:15:59;;;;;;;17.58;4.88;;;;;;;30.57;35.39;101006.88;5055560;28;20498;-61
2022/05/31 11:18:56;;;;;;;5.00;4.00;;;;;;;30.65;35.23;100998.00;5055522;28;20415;-61
2022/05/31 11:21:45;;;;;;;7.82;3.58;;;;;;;30.17;35.50;100995.41;5052541;28;20817;-61
2022/05/31 11:24:26;;;;;;;5.13;3.72;;;;;;;30.19;35.29;100986.91;5068656;28;20935;-61
2022/05/31 11:27:08;;;;;;;7.00;3.80;;;;;;;30.24;35.53;100986.84;5048623;28;20429;-61
2022/05/31 11:30:03;;;;;;;6.75;4.25;;;;;;;30.26;36.30;100976.44;5050202;28;20408;-61
2022/05/31 11:32:40;;;;;;;6.57;3.90;;;;;;;30.37;35.69;100977.91;5071150;28;20544;-61
2022/05/31 11:35:21;;;;;;;8.02;4.60;;;;;;;30.02;36.56;100988.25;5054399;28;20412;-61
2022/05/31 11:37:57;;;;;;;7.43;4.15;;;;;;;29.78;36.93;100977.34;5063816;28;20931;-62
2022/05/31 11:40:56;;;;;;;6.63;3.88;;;;;;;29.84;36.24;100978.13;5063025;28;20418;-61
2022/05/31 11:44:11;;;;;;;6.65;3.97;;;;;;;29.80;36.50;100982.53;5060086;28;20424;-61
2022/05/31 11:46:43;;;;;;;9.00;4.10;;;;;;;30.00;36.41;100982.25;5067731;28;20811;-62
2022/05/31 11:49:22;;;;;;;9.02;4.05;;;;;;;30.13;35.85;100988.13;5065975;28;21574;-61
2022/05/31 11:52:10;;;;;;;8.48;3.70;;;;;;;30.29;35.43;100987.59;5073903;28;20427;-61
2022/05/31 11:58:15;;;;;;;7.53;4.28;;;;;;;29.90;36.57;100987.88;5064199;28;20438;-61
2022/05/31 12:00:51;;;;;;;7.00;4.00;;;;;;;29.80;36.10;100985.25;5068474;28;20406;-61
2022/05/31 12:03:23;;;;;;;5.37;3.80;;;;;;;29.61;36.04;100991.47;5064265;28;21268;-62
2022/05/31 12:05:55;;;;;;;6.97;3.77;;;;;;;29.79;35.43;100984.44;5071952;28;20407;-61
2022/05/31 12:08:29;;;;;;;6.22;3.53;;;;;;;29.98;34.71;100994.59;5065030;28;20830;-62